Time;durP1;ratioP1;P1;durP2;ratioP2;P2;SDS_P1;SDS_P2;PMS_P1;PMS_P2;Temp;Humidity;BMP_temperature;BMP_pressure;BME280_temperature;BME280_humidity;BME280_pressure;Samples;Min_cycle;Max_cycle;Signal;HPM_P1;HPM_P2
2023/08/18 00:01:19;;;;;;;4.68;3.15;;;16.80;99.90;;;;;;5023047;28;20038;-74
2023/08/18 00:03:45;;;;;;;6.65;3.30;;;16.80;99.90;;;;;;5024376;28;20025;-74
2023/08/18 00:06:11;;;;;;;9.10;3.15;;;16.80;99.90;;;;;;5023908;28;20036;-73
2023/08/18 00:08:37;;;;;;;11.32;3.65;;;16.80;99.90;;;;;;5025220;28;20451;-74
2023/08/18 00:11:03;;;;;;;5.07;3.30;;;16.80;99.90;;;;;;5025574;28;20041;-73
2023/08/18 00:13:28;;;;;;;8.43;3.42;;;16.80;99.90;;;;;;5025365;28;20022;-73
2023/08/18 00:15:54;;;;;;;6.95;2.78;;;16.90;99.90;;;;;;5023900;28;20038;-74
2023/08/18 00:18:20;;;;;;;6.90;3.33;;;16.80;99.90;;;;;;5023738;28;20034;-75
2023/08/18 00:20:45;;;;;;;6.30;3.50;;;16.80;99.90;;;;;;5025416;28;20442;-75
2023/08/18 00:23:11;;;;;;;5.95;3.17;;;16.90;99.90;;;;;;5024800;28;20451;-75
2023/08/18 00:25:36;;;;;;;5.80;3.25;;;16.90;99.90;;;;;;5025315;28;20029;-75
2023/08/18 00:28:02;;;;;;;7.25;3.22;;;16.90;99.90;;;;;;5025486;28;20034;-73
2023/08/18 00:30:28;;;;;;;10.52;3.50;;;16.90;99.90;;;;;;5025770;28;20033;-75
2023/08/18 00:32:53;;;;;;;5.40;3.05;;;16.90;99.90;;;;;;5025228;28;20463;-74
2023/08/18 00:35:19;;;;;;;9.30;3.40;;;16.90;99.90;;;;;;5025019;28;20057;-74
2023/08/18 00:37:45;;;;;;;8.57;3.13;;;16.90;99.90;;;;;;5024181;28;20045;-74
2023/08/18 00:40:11;;;;;;;11.18;2.80;;;16.90;99.90;;;;;;5024764;28;20033;-74
2023/08/18 00:42:37;;;;;;;10.80;3.17;;;16.80;99.90;;;;;;5024043;28;20387;-76
2023/08/18 00:45:03;;;;;;;10.80;3.05;;;16.90;99.90;;;;;;5024833;28;20030;-75
2023/08/18 00:47:30;;;;;;;5.50;3.03;;;16.90;99.90;;;;;;5025012;28;20034;-76
2023/08/18 00:49:58;;;;;;;6.22;3.15;;;16.90;99.90;;;;;;5024546;28;20049;-74
2023/08/18 00:52:28;;;;;;;4.25;2.55;;;16.90;99.90;;;;;;5022976;28;20036;-74
2023/08/18 00:54:54;;;;;;;6.57;3.20;;;16.80;99.90;;;;;;5023401;28;20048;-74
2023/08/18 00:57:20;;;;;;;6.22;3.00;;;16.80;99.90;;;;;;5022937;28;20021;-74
2023/08/18 00:59:46;;;;;;;5.90;2.88;;;16.80;99.90;;;;;;5023075;28;20053;-74
2023/08/18 01:02:12;;;;;;;9.00;3.30;;;16.80;99.90;;;;;;5023279;28;20022;-74
2023/08/18 01:04:38;;;;;;;5.80;2.63;;;16.80;99.90;;;;;;5024099;28;20022;-74
2023/08/18 01:07:04;;;;;;;5.80;2.58;;;16.90;99.90;;;;;;5024548;28;20110;-75
2023/08/18 01:09:31;;;;;;;7.03;2.70;;;16.80;99.90;;;;;;5022885;28;20080;-74
2023/08/18 01:12:06;;;;;;;4.15;2.80;;;16.90;99.90;;;;;;5022924;28;20220;-73
2023/08/18 01:14:37;;;;;;;7.63;3.00;;;16.90;99.90;;;;;;5023059;28;20034;-74
2023/08/18 01:17:17;;;;;;;3.17;2.50;;;16.90;99.90;;;;;;5022280;28;20032;-75
2023/08/18 01:19:45;;;;;;;7.40;2.67;;;16.90;99.90;;;;;;5024118;28;20044;-75
2023/08/18 01:22:16;;;;;;;7.18;2.90;;;16.90;99.90;;;;;;5022861;28;20108;-73
2023/08/18 01:24:42;;;;;;;10.50;2.92;;;16.90;99.90;;;;;;5022407;28;20461;-75
2023/08/18 01:27:07;;;;;;;7.70;2.60;;;16.90;99.90;;;;;;5024175;28;20034;-75
2023/08/18 01:29:34;;;;;;;9.77;2.53;;;16.90;99.90;;;;;;5023523;28;20077;-74
2023/08/18 01:32:02;;;;;;;8.25;2.50;;;16.90;99.90;;;;;;5022844;28;20085;-74
2023/08/18 01:34:29;;;;;;;6.80;2.63;;;16.90;99.90;;;;;;5023902;28;20065;-74
2023/08/18 01:36:57;;;;;;;4.85;2.70;;;16.90;99.90;;;;;;5023961;28;20053;-74
2023/08/18 01:39:24;;;;;;;4.32;2.33;;;16.80;99.90;;;;;;5023722;28;20030;-74
2023/08/18 01:41:52;;;;;;;4.93;2.88;;;16.80;99.90;;;;;;5024145;28;20052;-73
2023/08/18 01:44:18;;;;;;;5.50;2.50;;;16.90;99.90;;;;;;5022421;28;20685;-74
2023/08/18 01:46:46;;;;;;;6.18;2.95;;;16.90;99.90;;;;;;5023658;28;20033;-75
2023/08/18 01:49:12;;;;;;;5.70;2.22;;;16.90;99.90;;;;;;5023704;28;20037;-74
2023/08/18 01:51:38;;;;;;;4.43;2.22;;;16.80;99.90;;;;;;5022005;28;20033;-74
2023/08/18 01:54:04;;;;;;;5.15;2.30;;;16.90;99.90;;;;;;5023718;28;20376;-73
2023/08/18 01:56:29;;;;;;;4.82;2.60;;;16.90;99.90;;;;;;5024175;28;20092;-75
2023/08/18 01:58:55;;;;;;;5.25;2.67;;;16.90;99.90;;;;;;5023974;28;20030;-74
2023/08/18 02:01:20;;;;;;;4.90;2.40;;;16.90;99.90;;;;;;5022627;28;20042;-75
2023/08/18 02:03:46;;;;;;;4.60;2.30;;;16.80;99.90;;;;;;5022349;28;20034;-74
2023/08/18 02:06:12;;;;;;;8.07;2.30;;;16.90;99.90;;;;;;5022373;28;20026;-74
2023/08/18 02:08:37;;;;;;;7.20;2.45;;;16.90;99.90;;;;;;5023616;28;20056;-74
2023/08/18 02:11:04;;;;;;;4.72;2.20;;;16.80;99.90;;;;;;5022140;28;20057;-75
2023/08/18 02:13:31;;;;;;;4.75;2.20;;;16.80;99.90;;;;;;5022316;28;20026;-75
2023/08/18 02:15:57;;;;;;;4.45;2.30;;;16.80;99.90;;;;;;5023503;28;20121;-74
2023/08/18 02:18:22;;;;;;;6.38;2.60;;;16.80;99.90;;;;;;5023605;28;20037;-75
2023/08/18 02:20:55;;;;;;;3.72;2.38;;;16.90;99.90;;;;;;5022005;28;20105;-74
2023/08/18 02:23:21;;;;;;;8.15;2.60;;;16.80;99.90;;;;;;5023254;28;20041;-74
2023/08/18 02:25:47;;;;;;;6.03;2.33;;;16.80;99.90;;;;;;5022360;28;20026;-74
2023/08/18 02:28:14;;;;;;;6.05;2.35;;;16.80;99.90;;;;;;5024400;28;20045;-74
2023/08/18 02:30:39;;;;;;;6.38;2.20;;;16.80;99.90;;;;;;5027161;28;20045;-73
2023/08/18 02:33:05;;;;;;;5.25;2.35;;;16.80;99.90;;;;;;5025154;28;20053;-76
2023/08/18 02:35:31;;;;;;;4.50;2.42;;;16.70;99.90;;;;;;5027240;28;20238;-76
2023/08/18 02:37:56;;;;;;;6.82;2.80;;;16.70;99.90;;;;;;5025348;28;20037;-74
2023/08/18 02:40:22;;;;;;;7.95;2.55;;;16.70;99.90;;;;;;5026624;28;20036;-75
2023/08/18 02:42:47;;;;;;;5.68;2.75;;;16.70;99.90;;;;;;5026522;28;20030;-75
2023/08/18 02:45:13;;;;;;;4.85;2.83;;;16.70;99.90;;;;;;5027221;28;20454;-75
2023/08/18 02:47:39;;;;;;;7.25;2.70;;;16.60;99.90;;;;;;5025666;28;20022;-74
2023/08/18 02:50:06;;;;;;;9.13;2.83;;;16.60;99.90;;;;;;5024931;28;20029;-74
2023/08/18 02:52:32;;;;;;;6.57;3.10;;;16.60;99.90;;;;;;5025502;28;20026;-74
2023/08/18 02:54:58;;;;;;;6.22;2.72;;;16.50;99.90;;;;;;5025503;28;20052;-77
2023/08/18 02:57:23;;;;;;;11.82;2.90;;;16.50;99.90;;;;;;5026573;28;20030;-74
2023/08/18 02:59:49;;;;;;;9.00;2.90;;;16.50;99.90;;;;;;5025624;28;20026;-74
2023/08/18 03:02:14;;;;;;;5.45;2.63;;;16.40;99.90;;;;;;5026106;28;20078;-73
2023/08/18 03:04:40;;;;;;;4.75;2.80;;;16.40;99.90;;;;;;5025923;28;20033;-74
2023/08/18 03:07:06;;;;;;;7.55;3.00;;;16.40;99.90;;;;;;5025311;28;20462;-75
2023/08/18 03:09:31;;;;;;;5.55;2.72;;;16.40;99.90;;;;;;5026752;28;20026;-74
2023/08/18 03:11:57;;;;;;;7.15;2.90;;;16.40;99.90;;;;;;5026255;28;20501;-75
2023/08/18 03:14:23;;;;;;;6.55;3.22;;;16.40;99.90;;;;;;5026205;28;20037;-74
2023/08/18 03:16:49;;;;;;;5.25;3.13;;;16.40;99.90;;;;;;5025284;28;20073;-73
2023/08/18 03:19:14;;;;;;;10.77;3.50;;;16.40;99.90;;;;;;5024684;28;20036;-73
2023/08/18 03:21:40;;;;;;;10.50;3.90;;;16.40;99.90;;;;;;5026584;28;20052;-74
2023/08/18 03:24:05;;;;;;;5.32;3.15;;;16.40;99.90;;;;;;5026251;28;20037;-75
2023/08/18 03:26:31;;;;;;;7.10;3.65;;;16.40;99.90;;;;;;5024742;28;20042;-77
2023/08/18 03:28:57;;;;;;;7.75;3.67;;;16.40;99.90;;;;;;5025114;28;20058;-74
2023/08/18 03:31:23;;;;;;;4.82;3.38;;;16.40;99.90;;;;;;5026133;28;20040;-75
2023/08/18 03:33:52;;;;;;;7.50;3.53;;;16.40;99.90;;;;;;5024253;28;20457;-74
2023/08/18 03:36:18;;;;;;;14.23;4.03;;;16.40;99.90;;;;;;5024589;28;20076;-75
2023/08/18 03:38:43;;;;;;;10.27;3.47;;;16.40;99.90;;;;;;5025868;28;20057;-73
2023/08/18 03:41:09;;;;;;;9.45;3.55;;;16.40;99.90;;;;;;5023809;28;20065;-75
2023/08/18 03:43:35;;;;;;;10.93;3.53;;;16.40;99.90;;;;;;5025712;28;20030;-75
2023/08/18 03:46:03;;;;;;;9.73;3.65;;;16.30;99.90;;;;;;5025555;28;20053;-74
2023/08/18 03:48:29;;;;;;;8.38;3.47;;;16.30;99.90;;;;;;5026354;28;20026;-75
2023/08/18 03:50:54;;;;;;;9.10;4.05;;;16.30;99.90;;;;;;5026175;28;20073;-74
2023/08/18 03:53:23;;;;;;;6.30;3.63;;;16.30;99.90;;;;;;5025262;28;20022;-74
2023/08/18 03:55:56;;;;;;;8.50;4.00;;;16.30;99.90;;;;;;5025490;28;20046;-75
2023/08/18 03:58:21;;;;;;;8.68;4.22;;;16.30;99.90;;;;;;5025760;28;20124;-74
2023/08/18 04:00:47;;;;;;;6.78;3.60;;;16.30;99.90;;;;;;5024154;28;20026;-74
2023/08/18 04:03:13;;;;;;;7.82;4.38;;;16.30;99.90;;;;;;5024363;28;20056;-74
2023/08/18 04:05:45;;;;;;;9.75;4.30;;;16.30;99.90;;;;;;5025503;28;20026;-75
2023/08/18 04:08:10;;;;;;;8.13;4.03;;;16.30;99.90;;;;;;5019188;28;20030;-75
2023/08/18 04:10:36;;;;;;;8.40;4.25;;;16.30;99.90;;;;;;5016246;28;20036;-73
2023/08/18 04:13:01;;;;;;;9.75;4.40;;;16.30;99.90;;;;;;5014282;28;20053;-73
2023/08/18 04:15:27;;;;;;;6.95;4.15;;;16.30;99.90;;;;;;5023990;28;20084;-75
2023/08/18 04:17:52;;;;;;;8.98;4.28;;;16.30;99.90;;;;;;5026310;28;20052;-74
2023/08/18 04:20:18;;;;;;;9.20;4.72;;;16.30;99.90;;;;;;5024593;28;20033;-75
2023/08/18 04:22:43;;;;;;;12.27;5.10;;;16.30;99.90;;;;;;5023330;28;20375;-75
2023/08/18 04:25:09;;;;;;;12.93;4.63;;;16.30;99.90;;;;;;5024455;28;20022;-73
2023/08/18 04:27:34;;;;;;;13.98;4.78;;;16.30;99.90;;;;;;5024405;28;20072;-76
2023/08/18 04:30:00;;;;;;;9.45;4.60;;;16.30;99.90;;;;;;5025853;28;20463;-74
2023/08/18 04:32:26;;;;;;;10.05;4.50;;;16.30;99.90;;;;;;5025821;28;20030;-75
2023/08/18 04:34:52;;;;;;;9.13;4.38;;;16.30;99.90;;;;;;5023726;28;20121;-76
2023/08/18 04:37:18;;;;;;;9.30;5.13;;;16.30;99.90;;;;;;5023762;28;20038;-75
2023/08/18 04:39:44;;;;;;;11.52;4.88;;;16.30;99.90;;;;;;5024084;28;20408;-75
2023/08/18 04:42:09;;;;;;;10.52;4.30;;;16.40;99.90;;;;;;5023934;28;20029;-76
2023/08/18 04:44:35;;;;;;;10.40;4.65;;;16.40;99.90;;;;;;5025612;28;20032;-75
2023/08/18 04:47:03;;;;;;;6.90;4.22;;;16.40;99.90;;;;;;5025172;28;20022;-75
2023/08/18 04:49:30;;;;;;;9.73;4.13;;;16.40;99.90;;;;;;5023691;28;20364;-75
2023/08/18 04:51:55;;;;;;;10.48;4.55;;;16.40;99.90;;;;;;5024596;28;20034;-74
2023/08/18 04:54:21;;;;;;;8.27;4.20;;;16.40;99.90;;;;;;5025276;28;20029;-75
2023/08/18 04:56:47;;;;;;;12.50;5.13;;;16.40;99.90;;;;;;5025038;28;20478;-74
2023/08/18 04:59:12;;;;;;;9.27;4.28;;;16.40;99.90;;;;;;5023950;28;20541;-75
2023/08/18 05:01:38;;;;;;;9.23;4.45;;;16.50;99.90;;;;;;5025182;28;20022;-74
2023/08/18 05:04:03;;;;;;;12.77;5.22;;;16.50;99.90;;;;;;5023546;28;20022;-75
2023/08/18 05:06:30;;;;;;;6.82;4.55;;;16.40;99.90;;;;;;5023716;28;20121;-75
2023/08/18 05:08:56;;;;;;;6.30;4.63;;;16.50;99.90;;;;;;5023751;28;20049;-74
2023/08/18 05:11:22;;;;;;;11.35;4.93;;;16.50;99.90;;;;;;5024900;28;20021;-74
2023/08/18 05:14:02;;;;;;;9.63;4.40;;;16.50;99.90;;;;;;5023199;28;20030;-75
2023/08/18 05:16:28;;;;;;;8.25;4.70;;;16.50;99.90;;;;;;5022951;28;20042;-75
2023/08/18 05:18:54;;;;;;;9.93;4.93;;;16.60;99.90;;;;;;5024658;28;20053;-75
2023/08/18 05:21:19;;;;;;;7.00;4.25;;;16.60;99.90;;;;;;5024623;28;20034;-74
2023/08/18 05:23:45;;;;;;;13.25;4.63;;;16.60;99.90;;;;;;5023250;28;20116;-74
2023/08/18 05:26:10;;;;;;;9.55;4.43;;;16.60;99.90;;;;;;5024475;28;20034;-74
2023/08/18 05:28:36;;;;;;;13.15;4.75;;;16.70;99.90;;;;;;5024966;28;20022;-74
2023/08/18 05:31:02;;;;;;;7.93;4.70;;;16.70;99.90;;;;;;5024461;28;20037;-75
2023/08/18 05:33:28;;;;;;;7.63;4.70;;;16.70;99.90;;;;;;5023820;28;20049;-75
2023/08/18 05:35:58;;;;;;;9.15;4.57;;;16.70;99.90;;;;;;5024886;28;20041;-74
2023/08/18 05:38:23;;;;;;;8.73;4.20;;;16.70;99.90;;;;;;5024379;28;20364;-73
2023/08/18 05:40:49;;;;;;;7.10;4.30;;;16.70;99.90;;;;;;5024832;28;20053;-72
2023/08/18 05:43:16;;;;;;;12.70;5.00;;;16.80;99.90;;;;;;5021785;28;20037;-75
2023/08/18 05:45:44;;;;;;;10.65;4.43;;;16.80;99.90;;;;;;5022908;28;20467;-74
2023/08/18 05:48:10;;;;;;;8.77;4.80;;;16.80;99.90;;;;;;5023904;28;20104;-73
2023/08/18 05:50:36;;;;;;;9.65;4.30;;;16.80;99.90;;;;;;5023578;28;20034;-76
2023/08/18 05:53:03;;;;;;;8.50;4.88;;;16.80;99.90;;;;;;5023669;28;20065;-75
2023/08/18 05:55:29;;;;;;;11.60;4.75;;;16.80;99.90;;;;;;5023672;28;20100;-74
2023/08/18 05:58:00;;;;;;;9.13;4.53;;;16.90;99.90;;;;;;5023115;28;20026;-74
2023/08/18 06:00:27;;;;;;;8.43;4.15;;;16.90;99.90;;;;;;5023184;28;20025;-73
2023/08/18 06:02:54;;;;;;;7.80;4.50;;;16.90;99.90;;;;;;5024887;28;20026;-73
2023/08/18 06:05:20;;;;;;;9.60;4.93;;;16.90;99.90;;;;;;5026881;28;20026;-74
2023/08/18 06:07:45;;;;;;;11.07;5.18;;;17.00;99.90;;;;;;5028327;28;20052;-74
2023/08/18 06:10:11;;;;;;;8.15;4.80;;;16.90;99.90;;;;;;5028409;28;20029;-73
2023/08/18 06:12:38;;;;;;;9.13;4.53;;;17.00;99.90;;;;;;5028005;28;20053;-74
2023/08/18 06:15:05;;;;;;;11.20;4.85;;;17.00;99.90;;;;;;5026326;28;20042;-73
2023/08/18 06:17:30;;;;;;;8.52;4.57;;;17.00;99.90;;;;;;5026948;28;20033;-74
2023/08/18 06:19:56;;;;;;;9.60;4.68;;;17.10;99.90;;;;;;5028278;28;20497;-75
2023/08/18 06:22:22;;;;;;;9.93;4.70;;;17.10;99.90;;;;;;5025747;28;20049;-74
2023/08/18 06:24:47;;;;;;;8.25;5.07;;;17.10;99.90;;;;;;5026636;28;20017;-74
2023/08/18 06:27:13;;;;;;;8.27;4.80;;;17.20;99.90;;;;;;5027480;28;20029;-74
2023/08/18 06:29:39;;;;;;;10.35;5.15;;;17.20;99.90;;;;;;5027562;28;20037;-75
2023/08/18 06:32:05;;;;;;;14.15;5.28;;;17.30;99.90;;;;;;5027767;28;20030;-75
2023/08/18 06:34:30;;;;;;;13.60;4.70;;;17.30;99.90;;;;;;5027417;28;20048;-73
2023/08/18 06:36:56;;;;;;;12.43;5.00;;;17.30;99.90;;;;;;5026200;28;20026;-74
2023/08/18 06:39:22;;;;;;;9.93;4.57;;;17.40;99.90;;;;;;5027445;28;20030;-75
2023/08/18 06:41:47;;;;;;;9.52;4.88;;;17.40;99.90;;;;;;5027418;28;20072;-74
2023/08/18 06:44:13;;;;;;;9.50;4.75;;;17.50;99.90;;;;;;5027321;28;20514;-75
2023/08/18 06:46:39;;;;;;;9.23;4.35;;;17.50;99.90;;;;;;5027522;28;20030;-72
2023/08/18 06:49:05;;;;;;;11.82;4.70;;;17.50;99.90;;;;;;5027368;28;20022;-75
2023/08/18 06:51:30;;;;;;;13.20;4.75;;;17.60;99.90;;;;;;5025939;28;20026;-74
2023/08/18 06:53:56;;;;;;;8.20;4.63;;;17.70;99.90;;;;;;5027378;28;20080;-74
2023/08/18 06:56:21;;;;;;;10.38;4.68;;;17.70;99.90;;;;;;5025767;28;20530;-73
2023/08/18 06:58:47;;;;;;;8.77;4.50;;;17.80;99.90;;;;;;5025829;28;20105;-73
2023/08/18 07:01:13;;;;;;;10.98;4.80;;;17.80;99.90;;;;;;5026621;28;20036;-74
2023/08/18 07:03:38;;;;;;;18.15;4.90;;;17.90;99.90;;;;;;5026957;28;20045;-74
2023/08/18 07:06:04;;;;;;;10.73;4.63;;;17.90;99.90;;;;;;5027004;28;20029;-73
2023/08/18 07:08:30;;;;;;;10.75;4.80;;;17.90;99.90;;;;;;5027061;28;20026;-74
2023/08/18 07:10:56;;;;;;;8.32;4.28;;;17.90;99.90;;;;;;5027479;28;20540;-74
2023/08/18 07:13:22;;;;;;;10.90;4.70;;;18.00;99.90;;;;;;5025146;28;20034;-73
2023/08/18 07:15:48;;;;;;;9.15;5.25;;;18.00;99.90;;;;;;5025246;28;20049;-73
2023/08/18 07:18:16;;;;;;;11.35;4.50;;;18.00;99.90;;;;;;5027105;28;20085;-73
2023/08/18 07:20:43;;;;;;;8.07;4.80;;;18.10;99.90;;;;;;5026819;28;20402;-74
2023/08/18 07:23:08;;;;;;;8.88;4.70;;;18.10;99.90;;;;;;5026282;28;20037;-73
2023/08/18 07:25:34;;;;;;;12.55;4.55;;;18.20;99.90;;;;;;5027275;28;20022;-74
2023/08/18 07:28:00;;;;;;;9.43;4.78;;;18.20;99.90;;;;;;5026831;28;20022;-75
2023/08/18 07:30:26;;;;;;;10.40;5.15;;;18.20;99.90;;;;;;5026541;28;20030;-73
2023/08/18 07:32:54;;;;;;;12.27;4.82;;;18.30;99.90;;;;;;5026191;28;20026;-73
2023/08/18 07:35:19;;;;;;;10.70;5.57;;;18.30;99.90;;;;;;5025319;28;20042;-74
2023/08/18 07:37:45;;;;;;;8.95;4.82;;;18.40;99.90;;;;;;5026174;28;20045;-74
2023/08/18 07:40:11;;;;;;;6.43;4.32;;;18.40;99.90;;;;;;5026943;28;20025;-73
2023/08/18 07:42:38;;;;;;;10.50;4.90;;;18.40;99.90;;;;;;5024811;28;20033;-74
2023/08/18 07:45:05;;;;;;;9.40;4.88;;;18.50;99.90;;;;;;5026300;28;20022;-76
2023/08/18 07:47:31;;;;;;;6.78;4.78;;;18.60;99.90;;;;;;5026400;28;20017;-74
2023/08/18 07:49:56;;;;;;;8.07;4.60;;;18.70;99.90;;;;;;5016029;28;20504;-73
2023/08/18 07:52:22;;;;;;;10.85;5.22;;;18.70;99.90;;;;;;5025000;28;20375;-75
2023/08/18 07:54:48;;;;;;;8.00;5.18;;;18.70;99.90;;;;;;5022157;28;20430;-74
2023/08/18 07:57:13;;;;;;;6.55;4.47;;;18.60;99.90;;;;;;5035862;28;20022;-75
2023/08/18 07:59:39;;;;;;;7.60;4.30;;;18.70;99.90;;;;;;5022202;28;20026;-74
2023/08/18 08:02:05;;;;;;;12.15;5.20;;;18.80;99.90;;;;;;5020108;28;20037;-74
2023/08/18 08:04:31;;;;;;;9.43;5.72;;;18.90;99.90;;;;;;5019056;28;20026;-73
2023/08/18 08:06:57;;;;;;;9.57;5.18;;;18.90;99.90;;;;;;5011517;28;20087;-71
2023/08/18 08:09:26;;;;;;;7.05;4.53;;;19.00;99.90;;;;;;5006637;28;20502;-75
2023/08/18 08:11:53;;;;;;;8.77;4.85;;;19.10;99.90;;;;;;5013836;28;20037;-75
2023/08/18 08:14:19;;;;;;;10.20;5.20;;;19.20;99.90;;;;;;5022802;28;20032;-73
2023/08/18 08:16:45;;;;;;;10.63;5.40;;;19.30;99.90;;;;;;5018078;28;20084;-74
2023/08/18 08:19:13;;;;;;;6.95;4.53;;;19.30;99.90;;;;;;5007705;28;20050;-73
2023/08/18 08:21:40;;;;;;;11.60;5.22;;;19.40;99.90;;;;;;5040496;28;20030;-73
2023/08/18 08:24:06;;;;;;;9.93;5.80;;;19.50;99.90;;;;;;5025252;28;20046;-73
2023/08/18 08:26:32;;;;;;;7.00;3.85;;;19.60;99.90;;;;;;5023921;28;20038;-73
2023/08/18 08:28:58;;;;;;;12.55;5.25;;;19.70;99.90;;;;;;5017874;28;20025;-74
2023/08/18 08:31:24;;;;;;;10.57;4.65;;;19.80;99.90;;;;;;5024050;28;20049;-74
2023/08/18 08:33:49;;;;;;;10.88;5.28;;;19.90;99.90;;;;;;5021840;28;20050;-73
2023/08/18 08:36:15;;;;;;;8.38;4.47;;;20.00;99.90;;;;;;5025017;28;20038;-74
2023/08/18 08:38:42;;;;;;;9.13;4.30;;;20.20;99.90;;;;;;5024736;28;20025;-74
2023/08/18 08:41:08;;;;;;;7.28;4.78;;;20.30;99.90;;;;;;5021061;28;20029;-74
2023/08/18 08:43:34;;;;;;;8.57;4.57;;;20.50;99.90;;;;;;5024212;28;20033;-73
2023/08/18 08:46:00;;;;;;;5.78;3.38;;;20.70;99.90;;;;;;5024144;28;20041;-75
2023/08/18 08:48:32;;;;;;;10.25;4.10;;;20.80;99.90;;;;;;5018347;28;20026;-75
2023/08/18 08:51:03;;;;;;;6.40;4.50;;;20.90;99.90;;;;;;5015941;28;20021;-74
2023/08/18 08:53:39;;;;;;;8.70;4.47;;;21.00;99.90;;;;;;5025123;28;20033;-75
2023/08/18 08:56:07;;;;;;;4.75;4.07;;;21.10;99.90;;;;;;5023783;28;20045;-74
2023/08/18 08:58:34;;;;;;;10.80;4.53;;;21.20;99.90;;;;;;5021336;28;20025;-73
2023/08/18 09:01:00;;;;;;;6.68;4.28;;;21.30;99.90;;;;;;5016114;28;20040;-73
2023/08/18 09:03:27;;;;;;;5.93;4.25;;;21.40;99.90;;;;;;5015094;28;20025;-74
2023/08/18 09:05:54;;;;;;;5.55;4.13;;;21.40;99.90;;;;;;5016588;28;20044;-74
2023/08/18 09:08:19;;;;;;;7.00;4.40;;;21.50;99.90;;;;;;5024499;28;20061;-73
2023/08/18 09:10:45;;;;;;;8.00;4.70;;;21.50;99.90;;;;;;5023700;28;20033;-73
2023/08/18 09:13:12;;;;;;;8.00;5.65;;;21.60;99.90;;;;;;5025033;28;20040;-74
2023/08/18 09:15:44;;;;;;;6.93;5.00;;;21.70;99.90;;;;;;5023352;28;20061;-74
2023/08/18 09:18:17;;;;;;;8.65;5.00;;;21.70;99.90;;;;;;5014924;28;20022;-73
2023/08/18 09:20:44;;;;;;;10.82;5.20;;;21.80;99.90;;;;;;5014299;28;20026;-74
2023/08/18 09:23:10;;;;;;;5.97;4.47;;;21.80;99.90;;;;;;5020395;28;20022;-74
2023/08/18 09:25:37;;;;;;;7.75;5.20;;;21.80;99.90;;;;;;5023046;28;20033;-73
2023/08/18 09:28:05;;;;;;;9.07;5.40;;;21.90;99.90;;;;;;5024174;28;20029;-74
2023/08/18 09:30:32;;;;;;;6.80;4.60;;;22.00;99.90;;;;;;5023661;28;20031;-73
2023/08/18 09:33:02;;;;;;;9.40;5.10;;;22.10;99.90;;;;;;5011264;28;20483;-74
2023/08/18 09:35:34;;;;;;;11.32;4.88;;;22.10;99.90;;;;;;5003432;28;20034;-73
2023/08/18 09:38:01;;;;;;;8.82;5.05;;;22.20;99.90;;;;;;5016056;28;20046;-75
2023/08/18 09:40:28;;;;;;;9.30;4.75;;;22.30;99.90;;;;;;5024182;28;20029;-73
2023/08/18 09:42:54;;;;;;;6.32;4.55;;;22.30;99.90;;;;;;5024167;28;20036;-74
2023/08/18 09:45:26;;;;;;;9.23;4.80;;;22.40;99.90;;;;;;5024289;28;20045;-74
2023/08/18 09:47:55;;;;;;;11.32;4.55;;;22.50;99.90;;;;;;5016686;28;20050;-73
2023/08/18 09:50:27;;;;;;;9.00;5.15;;;22.60;99.90;;;;;;5017242;28;20025;-73
2023/08/18 09:52:55;;;;;;;8.40;5.18;;;22.70;99.90;;;;;;5018741;28;20425;-73
2023/08/18 09:55:27;;;;;;;10.20;5.88;;;22.80;99.90;;;;;;5023137;28;20194;-73
2023/08/18 09:58:01;;;;;;;12.20;5.32;;;22.80;99.90;;;;;;5024599;28;20068;-72
2023/08/18 10:00:27;;;;;;;7.13;5.20;;;22.90;99.90;;;;;;5023395;28;20022;-74
2023/08/18 10:02:56;;;;;;;7.03;5.03;;;22.90;99.90;;;;;;5023162;28;20102;-73
2023/08/18 10:05:22;;;;;;;8.40;5.45;;;23.00;99.90;;;;;;5022005;28;20026;-72
2023/08/18 10:07:48;;;;;;;9.77;5.57;;;23.10;99.90;;;;;;5024008;28;20475;-73
2023/08/18 10:10:14;;;;;;;9.50;5.93;;;23.20;99.90;;;;;;5023513;28;20037;-72
2023/08/18 10:12:43;;;;;;;8.75;6.00;;;23.20;99.90;;;;;;5021494;28;20068;-73
2023/08/18 10:15:09;;;;;;;10.43;5.90;;;23.30;99.90;;;;;;5021269;28;20033;-74
2023/08/18 10:17:35;;;;;;;7.50;5.70;;;23.30;99.90;;;;;;5021751;28;20068;-73
2023/08/18 10:20:00;;;;;;;11.73;5.63;;;23.40;99.90;;;;;;5022211;28;20030;-75
2023/08/18 10:22:28;;;;;;;15.30;5.93;;;23.40;99.90;;;;;;5024087;28;20044;-73
2023/08/18 10:24:55;;;;;;;11.43;5.60;;;23.50;99.90;;;;;;5023216;28;20056;-73
2023/08/18 10:27:42;;;;;;;9.77;5.72;;;23.50;99.90;;;;;;5022186;28;20030;-72
2023/08/18 10:30:08;;;;;;;10.23;6.20;;;23.70;99.90;;;;;;5022438;28;20085;-74
2023/08/18 10:32:33;;;;;;;9.80;6.00;;;23.70;99.90;;;;;;5022832;28;20060;-72
2023/08/18 10:35:19;;;;;;;10.57;6.82;;;23.80;99.90;;;;;;5023936;28;20058;-74
2023/08/18 10:37:44;;;;;;;9.48;6.40;;;23.90;99.90;;;;;;5010389;28;20051;-74
2023/08/18 10:40:22;;;;;;;11.50;6.65;;;24.00;99.90;;;;;;5023522;28;20038;-72
2023/08/18 10:42:50;;;;;;;8.43;6.05;;;24.00;99.90;;;;;;5022747;28;20678;-73
2023/08/18 10:45:29;;;;;;;9.50;6.50;;;24.10;99.90;;;;;;5024327;28;20068;-73
2023/08/18 10:47:58;;;;;;;12.02;6.68;;;24.10;99.90;;;;;;5022356;28;20620;-73
2023/08/18 10:50:24;;;;;;;10.85;6.57;;;24.30;99.90;;;;;;5025709;28;20030;-73
2023/08/18 10:52:55;;;;;;;10.38;6.65;;;24.40;99.90;;;;;;5027610;28;20026;-74
2023/08/18 10:55:24;;;;;;;10.75;5.80;;;24.50;99.90;;;;;;5026206;28;20088;-73
2023/08/18 10:57:50;;;;;;;11.45;7.10;;;24.50;99.90;;;;;;5026617;28;20026;-73
2023/08/18 11:00:18;;;;;;;11.70;6.32;;;24.60;99.90;;;;;;5027472;28;20080;-72
2023/08/18 11:02:50;;;;;;;12.63;6.85;;;24.70;99.90;;;;;;5027185;28;20026;-72
2023/08/18 11:05:20;;;;;;;9.95;6.65;;;24.80;99.90;;;;;;5027590;28;20030;-73
2023/08/18 11:07:46;;;;;;;9.20;6.82;;;24.90;99.90;;;;;;5025670;28;20032;-74
2023/08/18 11:10:16;;;;;;;9.30;7.20;;;25.00;99.90;;;;;;5027293;28;20056;-74
2023/08/18 11:12:43;;;;;;;9.05;6.57;;;25.10;99.90;;;;;;5025202;28;20114;-73
2023/08/18 11:15:09;;;;;;;9.77;7.25;;;25.20;99.90;;;;;;5026763;28;20049;-74
2023/08/18 11:17:34;;;;;;;9.02;6.47;;;25.20;99.90;;;;;;5027233;28;20025;-73
2023/08/18 11:20:19;;;;;;;9.50;6.47;;;25.10;99.90;;;;;;5027496;28;20029;-73
2023/08/18 11:22:47;;;;;;;8.10;6.07;;;25.20;99.90;;;;;;5027054;28;20022;-73
2023/08/18 11:25:14;;;;;;;8.65;5.95;;;25.40;99.90;;;;;;5025771;28;20038;-74
2023/08/18 11:27:43;;;;;;;10.68;6.95;;;25.50;99.90;;;;;;5026407;28;20061;-73
2023/08/18 11:30:13;;;;;;;7.60;6.13;;;25.70;99.90;;;;;;5026987;28;20085;-74
2023/08/18 11:32:39;;;;;;;9.07;6.50;;;25.80;99.90;;;;;;5025534;28;20025;-73
2023/08/18 11:35:07;;;;;;;8.38;6.90;;;25.90;99.90;;;;;;5026536;28;20084;-73
2023/08/18 11:37:44;;;;;;;8.93;6.35;;;26.00;99.90;;;;;;5025650;28;20041;-74
2023/08/18 11:40:12;;;;;;;9.30;6.53;;;26.10;99.90;;;;;;5026704;28;20106;-73
2023/08/18 11:42:44;;;;;;;8.90;6.72;;;26.20;99.90;;;;;;5026679;28;20046;-75
2023/08/18 11:45:17;;;;;;;8.15;5.70;;;26.30;99.90;;;;;;5026604;28;20060;-73
2023/08/18 11:47:44;;;;;;;11.48;6.68;;;26.40;99.90;;;;;;5026523;28;20034;-72
2023/08/18 11:50:13;;;;;;;9.18;7.43;;;26.40;99.90;;;;;;5026418;28;20108;-73
2023/08/18 11:52:46;;;;;;;9.30;6.40;;;26.50;99.90;;;;;;5026687;28;20116;-74
2023/08/18 11:55:13;;;;;;;11.27;6.90;;;26.60;99.90;;;;;;5026274;28;20040;-72
2023/08/18 11:57:45;;;;;;;9.10;6.53;;;26.70;99.90;;;;;;5025101;28;20030;-73
2023/08/18 12:00:13;;;;;;;11.35;7.22;;;26.70;99.90;;;;;;5025098;28;20033;-72
2023/08/18 12:02:46;;;;;;;8.23;7.38;;;26.70;99.90;;;;;;5025788;28;20076;-73
2023/08/18 12:05:22;;;;;;;10.10;7.07;;;26.70;99.90;;;;;;5026377;28;20029;-72
2023/08/18 12:07:54;;;;;;;9.68;6.90;;;26.80;99.90;;;;;;5025039;28;20037;-74
2023/08/18 12:10:21;;;;;;;7.28;6.38;;;26.80;99.90;;;;;;5026185;28;20109;-73
2023/08/18 12:12:54;;;;;;;8.55;7.05;;;26.90;99.90;;;;;;5026442;28;20396;-73
2023/08/18 12:15:21;;;;;;;8.20;7.35;;;27.00;99.90;;;;;;5025978;28;20057;-74
2023/08/18 12:17:47;;;;;;;8.27;7.38;;;26.90;99.90;;;;;;5024307;28;20083;-73
2023/08/18 12:20:13;;;;;;;10.48;7.20;;;26.90;99.90;;;;;;5026053;28;20026;-74
2023/08/18 12:22:39;;;;;;;9.25;7.07;;;27.00;99.90;;;;;;5024839;28;20033;-69
2023/08/18 12:25:05;;;;;;;9.93;6.95;;;27.10;99.90;;;;;;5025894;28;20033;-74
2023/08/18 12:27:33;;;;;;;9.30;7.03;;;27.20;99.90;;;;;;5024831;28;20061;-74
2023/08/18 12:30:00;;;;;;;9.25;7.55;;;27.20;99.90;;;;;;5024635;28;20056;-74
2023/08/18 12:32:26;;;;;;;11.43;7.35;;;27.30;99.90;;;;;;5024032;28;20034;-73
2023/08/18 12:34:51;;;;;;;7.85;6.78;;;27.40;99.90;;;;;;5024235;28;20133;-73
2023/08/18 12:37:21;;;;;;;9.68;7.43;;;27.50;99.90;;;;;;5025942;28;20104;-74
2023/08/18 12:39:47;;;;;;;10.10;7.38;;;27.60;99.90;;;;;;5024203;28;20038;-74
2023/08/18 12:42:13;;;;;;;10.35;6.95;;;27.70;99.90;;;;;;5025972;28;20034;-73